createdAt,value
2024-01-10T00:02:25.061Z,99270.00
2024-01-10T00:05:20.936Z,99266.72
2024-01-10T00:08:14.739Z,99274.47
2024-01-10T00:11:30.072Z,99267.72
2024-01-10T00:14:21.720Z,99266.72
2024-01-10T00:17:32.296Z,99268.13
2024-01-10T00:20:43.829Z,99278.69
2024-01-10T00:23:38.660Z,99276.81
2024-01-10T00:26:19.109Z,99271.88
2024-01-10T00:29:01.712Z,99273.38
2024-01-10T00:31:51.598Z,99285.72
2024-01-10T00:34:37.369Z,99278.69
2024-01-10T00:37:26.336Z,99279.78
2024-01-10T00:40:21.001Z,99294.97
2024-01-10T00:43:02.198Z,99305.75
2024-01-10T00:45:54.888Z,99300.75
2024-01-10T00:48:49.319Z,99304.06
2024-01-10T00:51:36.976Z,99312.19
2024-01-10T00:54:26.834Z,99302.09
2024-01-10T00:57:06.604Z,99298.81
2024-01-10T00:59:57.296Z,99312.97
2024-01-10T01:02:46.080Z,99313.97
2024-01-10T01:05:32.599Z,99310.38
2024-01-10T01:08:52.079Z,99310.75
2024-01-10T01:11:55.985Z,99316.00
2024-01-10T01:14:44.681Z,99304.59
2024-01-10T01:17:30.366Z,99305.69
2024-01-10T01:20:08.150Z,99320.63
2024-01-10T01:22:55.149Z,99313.97
2024-01-10T01:25:44.619Z,99311.56
2024-01-10T01:28:24.291Z,99308.97
2024-01-10T01:31:16.621Z,99310.47
2024-01-10T01:34:04.558Z,99308.81
2024-01-10T01:36:54.423Z,99312.34
2024-01-10T01:39:42.472Z,99303.44
2024-01-10T01:42:34.784Z,99302.72
2024-01-10T01:45:28.810Z,99299.91
2024-01-10T01:48:17.054Z,99298.31
2024-01-10T01:51:13.772Z,99298.91
2024-01-10T01:54:02.765Z,99303.34
2024-01-10T01:56:56.907Z,99302.94
2024-01-10T01:59:46.798Z,99288.16
2024-01-10T02:02:33.406Z,99292.78
2024-01-10T02:05:18.416Z,99280.09
2024-01-10T02:08:07.174Z,99288.16
2024-01-10T02:11:00.981Z,99270.50
2024-01-10T02:13:48.435Z,99271.47
2024-01-10T02:17:02.259Z,99261.41
2024-01-10T02:19:41.545Z,99254.81
2024-01-10T02:22:40.325Z,99256.09
2024-01-10T02:25:32.536Z,99251.19
2024-01-10T02:28:25.386Z,99246.97
2024-01-10T02:31:30.371Z,99253.59
2024-01-10T02:34:12.646Z,99251.09
2024-01-10T02:37:00.202Z,99251.56
2024-01-10T02:39:48.307Z,99254.41
2024-01-10T02:42:38.723Z,99249.84
2024-01-10T02:45:22.617Z,99250.94
2024-01-10T02:48:20.587Z,99256.03
2024-01-10T02:51:08.144Z,99257.19
2024-01-10T02:53:59.299Z,99261.22
2024-01-10T02:56:52.352Z,99262.59
2024-01-10T02:59:48.383Z,99274.09
2024-01-10T03:02:32.639Z,99268.97
2024-01-10T03:05:27.815Z,99282.72
2024-01-10T03:08:15.545Z,99275.31
2024-01-10T03:10:52.606Z,99283.47
2024-01-10T03:13:42.335Z,99283.09
2024-01-10T03:16:36.649Z,99282.22
2024-01-10T03:19:26.117Z,99279.34
2024-01-10T03:22:21.480Z,99275.28
2024-01-10T03:25:05.450Z,99272.06
2024-01-10T03:27:51.028Z,99267.28
2024-01-10T03:30:40.916Z,99264.94
2024-01-10T03:33:28.504Z,99253.06
2024-01-10T03:36:09.096Z,99258.13
2024-01-10T03:38:55.078Z,99255.19
2024-01-10T03:41:30.252Z,99251.09
2024-01-10T03:44:32.909Z,99254.16
2024-01-10T03:47:30.416Z,99244.06
2024-01-10T03:50:33.692Z,99249.06
2024-01-10T03:53:14.472Z,99243.97
2024-01-10T03:56:10.876Z,99247.53
2024-01-10T03:58:58.973Z,99249.22
2024-01-10T04:01:51.813Z,99249.69
2024-01-10T04:04:44.019Z,99262.19
2024-01-10T04:07:34.198Z,99253.44
2024-01-10T04:10:42.164Z,99259.16
2024-01-10T04:13:46.663Z,99263.38
2024-01-10T04:16:35.608Z,99260.03
2024-01-10T04:19:29.080Z,99260.44
2024-01-10T04:22:26.110Z,99258.44
2024-01-10T04:25:21.803Z,99257.69
2024-01-10T04:28:08.659Z,99261.44
2024-01-10T04:31:04.732Z,99264.91
2024-01-10T04:33:51.697Z,99271.53
2024-01-10T04:36:49.505Z,99274.81
2024-01-10T04:39:52.457Z,99273.09
2024-01-10T04:42:51.188Z,99273.19
2024-01-10T04:45:40.546Z,99279.81
2024-01-10T04:48:34.534Z,99284.06
2024-01-10T04:51:39.065Z,99281.72
2024-01-10T04:54:25.115Z,99289.47
2024-01-10T04:57:24.146Z,99299.22
2024-01-10T05:00:14.518Z,99309.00
2024-01-10T05:03:19.303Z,99310.88
2024-01-10T05:06:07.848Z,99308.63
2024-01-10T05:09:06.845Z,99318.88
2024-01-10T05:11:58.622Z,99322.41
2024-01-10T05:14:46.086Z,99327.59
2024-01-10T05:17:57.179Z,99334.28
2024-01-10T05:21:28.549Z,99332.91
2024-01-10T05:24:34.194Z,99341.00
2024-01-10T05:27:34.106Z,99339.88
2024-01-10T05:30:45.337Z,99344.03
2024-01-10T05:33:39.835Z,99342.53
2024-01-10T05:37:00.723Z,99340.28
2024-01-10T05:43:11.543Z,99345.22
2024-01-10T05:46:05.166Z,99345.81
2024-01-10T05:48:59.844Z,99345.81
2024-01-10T05:51:50.401Z,99352.63
2024-01-10T05:54:54.442Z,99362.31
2024-01-10T05:57:38.623Z,99348.50
2024-01-10T06:00:30.449Z,99346.91
2024-01-10T06:03:20.514Z,99351.72
2024-01-10T06:06:19.431Z,99349.91
2024-01-10T06:09:30.360Z,99354.53
2024-01-10T06:12:30.809Z,99359.88
2024-01-10T06:15:39.392Z,99355.81
2024-01-10T06:18:33.589Z,99367.25
2024-01-10T06:21:49.043Z,99372.25
2024-01-10T06:25:14.489Z,99377.03
2024-01-10T06:28:23.502Z,99367.47
2024-01-10T06:31:28.647Z,99382.47
2024-01-10T06:34:16.919Z,99384.47
2024-01-10T06:37:25.344Z,99381.47
2024-01-10T06:40:28.565Z,99384.16
2024-01-10T06:43:13.503Z,99376.78
2024-01-10T06:46:24.282Z,99379.31
2024-01-10T06:50:01.204Z,99388.63
2024-01-10T06:53:11.302Z,99393.72
2024-01-10T06:55:52.302Z,99393.06
2024-01-10T06:58:33.369Z,99398.41
2024-01-10T07:01:12.118Z,99404.91
2024-01-10T07:04:02.910Z,99394.28
2024-01-10T07:06:56.368Z,99386.41
2024-01-10T07:10:19.382Z,99390.94
2024-01-10T07:13:47.092Z,99401.66
2024-01-10T07:17:16.398Z,99394.63
2024-01-10T07:20:11.748Z,99409.84
2024-01-10T07:23:07.375Z,99406.63
2024-01-10T07:26:16.144Z,99407.28
2024-01-10T07:29:19.814Z,99410.94
2024-01-10T07:32:24.240Z,99395.72
2024-01-10T07:35:21.052Z,99404.41
2024-01-10T07:38:20.435Z,99395.66
2024-01-10T07:41:42.144Z,99406.03
2024-01-10T07:44:35.393Z,99406.19
2024-01-10T07:47:40.592Z,99405.59
2024-01-10T07:50:32.794Z,99401.78
2024-01-10T07:53:50.678Z,99393.84
2024-01-10T07:57:28.703Z,99391.53
2024-01-10T08:01:02.817Z,99395.19
2024-01-10T08:04:07.755Z,99401.22
2024-01-10T08:07:26.195Z,99410.75
2024-01-10T08:10:19.458Z,99402.81
2024-01-10T08:13:43.601Z,99414.59
2024-01-10T08:16:49.038Z,99419.34
2024-01-10T08:20:23.186Z,99407.06
2024-01-10T08:23:24.721Z,99414.72
2024-01-10T08:30:09.112Z,99431.38
2024-01-10T08:36:58.106Z,99408.78
2024-01-10T08:40:13.732Z,99414.59
2024-01-10T08:43:44.696Z,99426.16
2024-01-10T08:46:45.557Z,99415.16
2024-01-10T08:50:01.623Z,99418.06
2024-01-10T08:53:21.734Z,99417.56
2024-01-10T08:56:29.614Z,99404.31
2024-01-10T09:00:04.869Z,99401.81
2024-01-10T09:03:57.262Z,99402.81
2024-01-10T09:07:41.349Z,99407.34
2024-01-10T09:10:46.592Z,99414.19
2024-01-10T09:14:42.331Z,99410.22
2024-01-10T09:17:49.095Z,99391.09
2024-01-10T09:21:17.566Z,99382.31
2024-01-10T09:27:35.432Z,99398.31
2024-01-10T09:34:16.799Z,99397.34
2024-01-10T09:37:26.456Z,99380.59
2024-01-10T09:40:54.177Z,99382.00
2024-01-10T09:43:53.386Z,99372.28
2024-01-10T09:46:42.017Z,99373.66
2024-01-10T09:49:47.828Z,99366.31
2024-01-10T09:53:15.703Z,99362.47
2024-01-10T09:56:06.515Z,99365.66
2024-01-10T09:59:55.314Z,99367.00
2024-01-10T10:02:57.632Z,99352.06
2024-01-10T10:06:23.723Z,99342.63
2024-01-10T10:09:33.582Z,99331.69
2024-01-10T10:12:54.666Z,99327.50
2024-01-10T10:16:58.182Z,99328.41
2024-01-10T10:24:09.195Z,99298.97
2024-01-10T10:27:24.378Z,99310.34
2024-01-10T10:31:07.763Z,99301.06
2024-01-10T10:34:16.000Z,99283.88
2024-01-10T10:37:16.436Z,99287.88
2024-01-10T10:40:05.599Z,99281.13
2024-01-10T10:43:08.204Z,99275.94
2024-01-10T10:46:13.871Z,99273.28
2024-01-10T10:49:15.204Z,99280.75
2024-01-10T10:53:52.524Z,99268.66
2024-01-10T10:57:16.445Z,99268.50
2024-01-10T11:00:37.594Z,99273.38
2024-01-10T11:03:58.360Z,99266.19
2024-01-10T11:07:01.372Z,99267.69
2024-01-10T11:10:01.436Z,99263.16
2024-01-10T11:13:38.140Z,99248.81
2024-01-10T11:17:20.039Z,99265.78
2024-01-10T11:21:19.894Z,99251.94
2024-01-10T11:25:16.418Z,99256.59
2024-01-10T11:28:32.547Z,99253.00
2024-01-10T11:32:16.998Z,99252.69
2024-01-10T11:35:17.715Z,99257.69
2024-01-10T11:38:29.050Z,99254.16
2024-01-10T11:41:48.310Z,99254.03
2024-01-10T11:45:06.697Z,99253.97
2024-01-10T11:48:33.200Z,99244.50
2024-01-10T11:51:51.192Z,99249.56
2024-01-10T11:55:32.735Z,99249.47
2024-01-10T12:01:43.200Z,99233.19
2024-01-10T12:04:41.976Z,99225.59
2024-01-10T12:07:44.689Z,99232.50
2024-01-10T12:10:31.463Z,99236.78
2024-01-10T12:13:47.411Z,99225.91
2024-01-10T12:16:51.956Z,99225.09
2024-01-10T12:20:04.850Z,99222.63
2024-01-10T12:23:06.789Z,99224.28
2024-01-10T12:26:36.789Z,99223.59
2024-01-10T12:30:23.618Z,99232.06
2024-01-10T12:33:49.218Z,99233.69
2024-01-10T12:36:42.557Z,99234.47
2024-01-10T12:39:35.537Z,99233.72
2024-01-10T12:42:20.220Z,99233.00
2024-01-10T12:45:20.818Z,99237.34
2024-01-10T12:48:20.754Z,99234.03
2024-01-10T12:51:17.088Z,99235.72
2024-01-10T12:54:30.051Z,99233.19
2024-01-10T12:57:28.881Z,99245.03
2024-01-10T13:00:27.651Z,99236.53
2024-01-10T13:03:29.028Z,99238.13
2024-01-10T13:06:39.057Z,99244.03
2024-01-10T13:09:34.907Z,99243.31
2024-01-10T13:12:25.375Z,99240.78
2024-01-10T13:15:42.459Z,99247.50
2024-01-10T13:18:55.635Z,99244.97
2024-01-10T13:21:52.306Z,99249.91
2024-01-10T13:24:36.988Z,99253.25
2024-01-10T13:27:54.100Z,99255.06
2024-01-10T13:31:16.786Z,99258.31
2024-01-10T13:34:12.782Z,99251.44
2024-01-10T13:37:03.518Z,99253.13
2024-01-10T13:39:44.777Z,99240.34
2024-01-10T13:43:00.341Z,99239.47
2024-01-10T13:45:41.307Z,99247.03
2024-01-10T13:49:04.728Z,99244.47
2024-01-10T13:51:54.518Z,99246.84
2024-01-10T13:54:34.556Z,99247.81
2024-01-10T13:57:19.500Z,99242.81
2024-01-10T14:00:09.488Z,99250.34
2024-01-10T14:03:05.471Z,99241.72
2024-01-10T14:05:59.068Z,99240.03
2024-01-10T14:08:37.175Z,99235.03
2024-01-10T14:11:18.828Z,99234.19
2024-01-10T14:14:38.735Z,99239.28
2024-01-10T14:17:14.678Z,99247.44
2024-01-10T14:20:02.334Z,99246.59
2024-01-10T14:22:44.847Z,99246.50
2024-01-10T14:25:36.310Z,99252.19
2024-01-10T14:28:34.674Z,99255.50
2024-01-10T14:31:29.603Z,99250.31
2024-01-10T14:34:31.331Z,99251.06
2024-01-10T14:37:34.154Z,99250.28
2024-01-10T14:40:54.189Z,99247.59
2024-01-10T14:43:38.457Z,99257.59
2024-01-10T14:46:25.434Z,99256.59
2024-01-10T14:49:07.350Z,99239.50
2024-01-10T14:51:56.151Z,99248.81
2024-01-10T14:54:54.399Z,99254.06
2024-01-10T14:58:13.368Z,99252.19
2024-01-10T15:01:10.903Z,99256.38
2024-01-10T15:03:56.060Z,99244.28
2024-01-10T15:06:50.889Z,99253.84
2024-01-10T15:09:36.172Z,99258.03
2024-01-10T15:12:26.237Z,99251.19
2024-01-10T15:15:09.053Z,99247.66
2024-01-10T15:17:51.414Z,99251.78
2024-01-10T15:20:31.061Z,99242.28
2024-01-10T15:23:28.809Z,99244.06
2024-01-10T15:26:20.729Z,99244.00
2024-01-10T15:29:03.680Z,99254.31
2024-01-10T15:31:55.168Z,99242.16
2024-01-10T15:34:56.400Z,99246.47
2024-01-10T15:37:43.051Z,99234.44
2024-01-10T15:40:42.275Z,99234.44
2024-01-10T15:43:22.842Z,99232.34
2024-01-10T15:46:00.695Z,99254.72
2024-01-10T15:48:40.209Z,99261.41
2024-01-10T15:51:35.371Z,99253.69
2024-01-10T15:54:23.733Z,99257.00
2024-01-10T15:57:15.489Z,99263.75
2024-01-10T16:02:57.966Z,99263.53
2024-01-10T16:05:44.865Z,99250.69
2024-01-10T16:08:59.032Z,99259.13
2024-01-10T16:11:52.580Z,99266.50
2024-01-10T16:14:38.245Z,99261.34
2024-01-10T16:17:17.715Z,99267.28
2024-01-10T16:20:10.672Z,99264.59
2024-01-10T16:23:00.482Z,99278.13
2024-01-10T16:26:14.182Z,99273.72
2024-01-10T16:29:15.357Z,99279.47
2024-01-10T16:32:10.116Z,99277.78
2024-01-10T16:35:26.092Z,99283.44
2024-01-10T16:38:24.418Z,99281.41
2024-01-10T16:41:23.786Z,99288.56
2024-01-10T16:44:25.687Z,99273.66
2024-01-10T16:47:18.761Z,99288.97
2024-01-10T16:50:03.133Z,99284.66
2024-01-10T16:52:56.494Z,99279.66
2024-01-10T16:55:40.802Z,99276.28
2024-01-10T16:58:43.939Z,99291.28
2024-01-10T17:01:31.382Z,99279.50
2024-01-10T17:04:17.758Z,99277.63
2024-01-10T17:07:11.218Z,99286.06
2024-01-10T17:10:02.055Z,99270.63
2024-01-10T17:12:52.047Z,99295.28
2024-01-10T17:16:09.411Z,99292.22
2024-01-10T17:18:47.810Z,99269.97
2024-01-10T17:21:29.578Z,99285.03
2024-01-10T17:24:36.231Z,99279.22
2024-01-10T17:27:20.385Z,99269.81
2024-01-10T17:30:04.994Z,99269.56
2024-01-10T17:32:57.100Z,99277.31
2024-01-10T17:35:51.881Z,99259.91
2024-01-10T17:38:41.597Z,99271.94
2024-01-10T17:41:26.156Z,99271.97
2024-01-10T17:44:10.535Z,99264.38
2024-01-10T17:47:14.561Z,99262.56
2024-01-10T17:50:16.082Z,99255.31
2024-01-10T17:53:05.488Z,99258.69
2024-01-10T17:56:20.322Z,99274.03
2024-01-10T17:59:20.179Z,99269.03
2024-01-10T18:02:33.618Z,99264.59
2024-01-10T18:05:43.841Z,99262.03
2024-01-10T18:08:38.967Z,99264.75
2024-01-10T18:15:01.094Z,99249.41
2024-01-10T18:18:24.966Z,99265.47
2024-01-10T18:21:20.740Z,99249.31
2024-01-10T18:24:22.222Z,99255.22
2024-01-10T18:27:02.261Z,99263.66
2024-01-10T18:29:56.797Z,99260.97
2024-01-10T18:35:59.816Z,99246.38
2024-01-10T18:39:01.230Z,99260.81
2024-01-10T18:41:54.313Z,99258.16
2024-01-10T18:44:48.515Z,99257.09
2024-01-10T18:47:49.664Z,99256.41
2024-01-10T18:50:54.616Z,99256.41
2024-01-10T18:53:44.934Z,99244.50
2024-01-10T18:59:46.343Z,99241.06
2024-01-10T19:02:46.660Z,99230.81
2024-01-10T19:05:59.156Z,99223.84
2024-01-10T19:08:50.369Z,99243.41
2024-01-10T19:11:49.712Z,99239.16
2024-01-10T19:14:51.060Z,99235.81
2024-01-10T19:17:58.785Z,99227.97
2024-01-10T19:21:07.528Z,99233.88
2024-01-10T19:23:50.225Z,99238.19
2024-01-10T19:26:43.005Z,99236.34
2024-01-10T19:32:32.655Z,99237.19
2024-01-10T19:35:12.333Z,99235.44
2024-01-10T19:38:01.044Z,99232.75
2024-01-10T19:40:49.474Z,99234.22
2024-01-10T19:43:29.476Z,99231.78
2024-01-10T19:46:13.944Z,99225.81
2024-01-10T19:49:30.434Z,99225.78
2024-01-10T19:52:16.220Z,99232.88
2024-01-10T19:55:27.377Z,99235.28
2024-01-10T19:58:24.159Z,99225.47
2024-01-10T20:01:14.210Z,99223.66
2024-01-10T20:04:05.423Z,99232.16
2024-01-10T20:06:50.957Z,99228.00
2024-01-10T20:12:45.081Z,99222.69
2024-01-10T20:15:38.737Z,99220.13
2024-01-10T20:18:35.430Z,99220.06
2024-01-10T20:21:34.509Z,99221.66
2024-01-10T20:24:28.810Z,99230.94
2024-01-10T20:27:33.682Z,99227.41
2024-01-10T20:30:34.866Z,99225.91
2024-01-10T20:33:28.039Z,99230.88
2024-01-10T20:36:12.565Z,99227.63
2024-01-10T20:38:52.680Z,99229.31
2024-01-10T20:41:47.674Z,99230.31
2024-01-10T20:44:45.445Z,99227.75
2024-01-10T20:47:47.805Z,99223.50
2024-01-10T20:50:44.544Z,99230.34
2024-01-10T20:53:24.733Z,99222.75
2024-01-10T20:56:09.640Z,99232.00
2024-01-10T20:58:55.243Z,99231.22
2024-01-10T21:01:36.324Z,99241.38
2024-01-10T21:04:44.557Z,99234.84
2024-01-10T21:07:41.097Z,99237.34
2024-01-10T21:10:34.706Z,99236.31
2024-01-10T21:13:37.972Z,99236.84
2024-01-10T21:16:21.271Z,99236.78
2024-01-10T21:22:50.149Z,99228.59
2024-01-10T21:25:40.813Z,99237.06
2024-01-10T21:31:58.629Z,99226.31
2024-01-10T21:35:37.861Z,99225.47
2024-01-10T21:41:36.856Z,99220.44
2024-01-10T21:44:43.045Z,99218.75
2024-01-10T21:47:29.859Z,99219.81
2024-01-10T21:50:35.124Z,99220.59
2024-01-10T21:53:38.380Z,99213.19
2024-01-10T21:56:58.902Z,99209.56
2024-01-10T22:00:11.386Z,99204.28
2024-01-10T22:03:07.470Z,99204.44
2024-01-10T22:05:59.617Z,99195.31
2024-01-10T22:08:59.912Z,99198.47
2024-01-10T22:12:02.348Z,99187.50
2024-01-10T22:15:16.243Z,99184.97
2024-01-10T22:18:12.518Z,99179.00
2024-01-10T22:21:12.007Z,99168.13
2024-01-10T22:24:01.148Z,99162.13
2024-01-10T22:27:20.828Z,99163.94
2024-01-10T22:30:17.025Z,99156.31
2024-01-10T22:33:07.004Z,99151.28
2024-01-10T22:36:35.199Z,99148.94
2024-01-10T22:39:34.001Z,99144.81
2024-01-10T22:42:44.515Z,99145.06
2024-01-10T22:45:34.338Z,99152.69
2024-01-10T22:48:30.302Z,99142.44
2024-01-10T22:54:39.302Z,99139.31
2024-01-10T22:57:39.663Z,99130.66
2024-01-10T23:00:28.737Z,99132.47
2024-01-10T23:03:36.854Z,99129.69
2024-01-10T23:06:26.802Z,99124.75
2024-01-10T23:09:18.749Z,99123.34
2024-01-10T23:12:18.615Z,99113.06
2024-01-10T23:15:01.350Z,99111.50
2024-01-10T23:17:46.237Z,99112.31
2024-01-10T23:20:35.152Z,99107.16
2024-01-10T23:23:19.258Z,99109.72
2024-01-10T23:26:32.979Z,99104.91
2024-01-10T23:29:15.467Z,99105.75
2024-01-10T23:32:06.188Z,99111.66
2024-01-10T23:34:50.316Z,99107.47
2024-01-10T23:37:37.578Z,99110.81
2024-01-10T23:41:06.704Z,99098.03
2024-01-10T23:44:02.089Z,99107.09
2024-01-10T23:46:54.636Z,99102.16
2024-01-10T23:49:46.396Z,99109.69
2024-01-10T23:52:39.163Z,99101.34
2024-01-10T23:55:51.925Z,99102.06
2024-01-10T23:58:40.437Z,99103.56
